Flight Track Log - Related Links

Times and Time Zones

All times are in EST time to prevent confusion due to time zone crossing. See the EJA396 flight status page for this flight to view local times or setup timezone preferences in your user account.

Time Position Orientation Groundspeed Altitude Reporting Facility
EST Latitude Longitude Course Direction KTS MPH feet Rate Location/Type
Wed 04:57:45 PM 40.1547 -87.5806 North 210 242 12,000  Level Chicago Center
Wed 04:58:47 PM 40.1886 -87.5011 61° Northeast 307 353 5,800 -1,161 Descending Chicago Center
Wed 04:59:49 PM 40.2647 -87.4906 North 285 328 9,600 3,000 Climbing Chicago Center
Wed 05:00:51 PM 40.3639 -87.4858 North 294 338 12,000 1,161 Climbing Chicago Center
Wed 05:01:53 PM 40.4631 -87.4781 North 350 403 12,000  Level Chicago Center
Wed 05:02:55 PM 40.5614 -87.4700 North 355 409 12,000  Level Chicago Center
Wed 05:03:00 PM 40.6754 -87.6699 North  Level Estimated
Wed 05:03:57 PM 40.6586 -87.4636 North 353 406 12,000  Level Chicago Center
Wed 05:04:59 PM 40.7578 -87.4564 North 356 410 12,000 -576 Level Chicago Center
Wed 05:06:02 PM 40.8711 -87.4478 North 345 397 10,800 -1,344 Descending Chicago Center
Wed 05:07:04 PM 40.9547 -87.4428 North 311 358 9,200 -1,597 Descending Chicago Center
Wed 05:08:06 PM 41.0311 -87.4381 North 285 328 7,500 -1,548 Descending Chicago Center
Wed 05:09:08 PM 41.1097 -87.4319 North 283 326 6,000 -1,452 Descending Chicago Center
Wed 05:10:10 PM 41.1864 -87.4275 North 281 323 4,500 -1,065 Descending Chicago Center
Wed 05:11:12 PM 41.2761 -87.4036 11° North 289 333 3,800 -339 Descending Chicago Center
Wed 05:12:14 PM 41.3536 -87.3711 17° North 289 333 3,800  Level Chicago Center
Wed 05:13:16 PM 41.4306 -87.3364 19° North 292 336 3,800  Level Chicago Center
Wed 05:14:19 PM 41.5078 -87.3300 North 281 323 3,800  Level Chicago Center
Wed 05:15:21 PM 41.5831 -87.3400 354° North 272 313 3,800  Level Chicago Center
Wed 05:16:23 PM 41.6731 -87.3533 354° North 273 314 3,800  Level Chicago Center
Wed 05:17:25 PM 41.7486 -87.3642 354° North 274 315 3,800 -97 Level Chicago Center
Wed 05:18:27 PM 41.8239 -87.3767 353° North 274 315 3,600 -339 Descending Chicago Center
Wed 05:19:29 PM 41.8914 -87.3869 354° North 264 304 3,100 -387 Descending Chicago Center
Wed 05:20:31 PM 41.9531 -87.3942 355° North 245 282 2,800 -145 Descending Chicago Center
Wed 05:21:33 PM 42.0233 -87.4264 341° North 239 275 2,800  Level Chicago Center
Wed 05:22:35 PM 42.0664 -87.4753 320° Northwest 215 247 2,800  Level Chicago Center
Wed 05:23:37 PM 42.1086 -87.5258 318° Northwest 209 241 2,800  Level Chicago Center
Wed 05:24:39 PM 42.1508 -87.5764 318° Northwest 206 237 2,800  Level Chicago Center
Wed 05:25:41 PM 42.1925 -87.6242 320° Northwest 203 234 2,800  Level Chicago Center
Wed 05:26:43 PM 42.2436 -87.6789 322° Northwest 199 229 2,800  Level Chicago Center
Wed 05:27:45 PM 42.2742 -87.7317 308° West 187 215 2,800  Level Chicago Center
Wed 05:28:47 PM 42.2883 -87.7925 287° West 175 201 2,800  Level Chicago Center
Wed 05:29:49 PM 42.2958 -87.8539 279° West 171 197 2,800  Level Chicago Center
Wed 05:30:51 PM 42.3014 -87.9111 277° West 163 188 2,800  Level Chicago Center
Wed 05:31:53 PM 42.3050 -87.9667 275° West 157 181 2,800 -194 Level Chicago Center
Wed 05:32:55 PM 42.2603 -87.9772 190° South 151 174 2,400 -290 Descending Chicago Center
Wed 05:33:57 PM 42.2211 -87.9622 164° South 149 171 2,200 -194 Descending Chicago Center
Wed 05:34:59 PM 42.1833 -87.9411 158° South 148 170 2,000 -242 Descending Chicago Center
Wed 05:36:01 PM 42.1525 -87.9256 159° South 143 165 1,700 -290 Descending Chicago Center
Wed 05:38:00 PM 42.1143 -87.9015 169° South  Level Estimated

Login

Don't have an account? Register now (free) for customized features, flight alerts, and more!